KGRR/GRR METAR and TAF weather

Enter ICAO airport designator
Station Type Date Time Source
KGRR METAR 2019/10/14 05:53 UTC NOAA

KGRR 140553Z AUTO 25004KT 10SM FEW041 OVC050 07/01 A2989 RMK AO2 SLP125 T00670006 10072 20067 53002 $


Station Type Date Time Source
KGRR Decoded METAR 2019/10/14 05:53 UTC NOAA

GERALD R. FORD INTERNATIONAL, MI, United States (KGRR) 42-53N 085-31W 239M
Oct 14, 2019 - 01:53 AM EDT / 2019.10.14 0553 UTC
Wind: from the WSW (250 degrees) at 5 MPH (4 KT):0
Visibility: 10 mile(s):0
Sky conditions: overcast
Temperature: 44.1 F (6.7 C)
Dew Point: 33.1 F (0.6 C)
Relative Humidity: 65%
Pressure (altimeter): 29.89 in. Hg (1012 hPa)
Pressure tendency: 0.01 inches (0.2 hPa) higher than three hours ago
ob: KGRR 140553Z AUTO 25004KT 10SM FEW041 OVC050 07/01 A2989 RMK AO2 SLP125 T00670006 10072 20067 53002
cycle: 6

Station Type Date Time Source
KGRR TAF 2019/10/14 06:42 UTC NOAA

TAF KGRR 140540Z 1406/1506 27005KT P6SM BKN050
FM141600 26010G18KT P6SM BKN080
FM142000 26009KT P6SM SCT150

Example: see airport list